sensor_id;sensor_type;location;lat;lon;timestamp;temperature;humidity
26907;DHT22;14472;56.880;16.658;2023-11-21T00:01:04;3.80;99.90
26907;DHT22;14472;56.880;16.658;2023-11-21T00:03:31;3.80;99.90
26907;DHT22;14472;56.880;16.658;2023-11-21T00:05:56;3.70;99.90
26907;DHT22;14472;56.880;16.658;2023-11-21T00:08:22;3.60;99.90
26907;DHT22;14472;56.880;16.658;2023-11-21T00:10:48;3.60;99.90
26907;DHT22;14472;56.880;16.658;2023-11-21T00:13:14;3.60;99.90
26907;DHT22;14472;56.880;16.658;2023-11-21T00:15:39;3.60;99.90
26907;DHT22;14472;56.880;16.658;2023-11-21T00:18:06;3.50;99.90
26907;DHT22;14472;56.880;16.658;2023-11-21T00:20:32;3.50;99.90
26907;DHT22;14472;56.880;16.658;2023-11-21T00:22:58;3.50;99.90
26907;DHT22;14472;56.880;16.658;2023-11-21T00:25:25;3.50;99.90
26907;DHT22;14472;56.880;16.658;2023-11-21T00:27:50;3.60;99.90
26907;DHT22;14472;56.880;16.658;2023-11-21T00:30:16;3.50;99.90
26907;DHT22;14472;56.880;16.658;2023-11-21T00:32:42;3.50;99.90
26907;DHT22;14472;56.880;16.658;2023-11-21T00:35:08;3.50;99.90
26907;DHT22;14472;56.880;16.658;2023-11-21T00:37:34;3.50;99.90
26907;DHT22;14472;56.880;16.658;2023-11-21T00:40:00;3.50;99.90
26907;DHT22;14472;56.880;16.658;2023-11-21T00:42:29;3.70;99.90
26907;DHT22;14472;56.880;16.658;2023-11-21T00:44:54;3.90;99.90
26907;DHT22;14472;56.880;16.658;2023-11-21T00:47:20;3.80;99.90
26907;DHT22;14472;56.880;16.658;2023-11-21T00:49:46;3.70;99.90
26907;DHT22;14472;56.880;16.658;2023-11-21T00:52:11;3.50;99.90
26907;DHT22;14472;56.880;16.658;2023-11-21T00:54:37;3.50;99.90
26907;DHT22;14472;56.880;16.658;2023-11-21T00:57:03;3.50;99.90
26907;DHT22;14472;56.880;16.658;2023-11-21T00:59:29;3.50;99.90
26907;DHT22;14472;56.880;16.658;2023-11-21T01:01:55;3.50;99.90
26907;DHT22;14472;56.880;16.658;2023-11-21T01:04:21;3.50;99.90
26907;DHT22;14472;56.880;16.658;2023-11-21T01:06:47;3.50;99.90
26907;DHT22;14472;56.880;16.658;2023-11-21T01:09:13;3.40;99.90
26907;DHT22;14472;56.880;16.658;2023-11-21T01:11:38;3.50;99.90
26907;DHT22;14472;56.880;16.658;2023-11-21T01:14:04;3.50;99.90
26907;DHT22;14472;56.880;16.658;2023-11-21T01:16:30;3.40;99.90
26907;DHT22;14472;56.880;16.658;2023-11-21T01:18:58;3.40;99.90
26907;DHT22;14472;56.880;16.658;2023-11-21T01:21:25;3.40;99.90
26907;DHT22;14472;56.880;16.658;2023-11-21T01:23:50;3.30;99.90
26907;DHT22;14472;56.880;16.658;2023-11-21T01:26:16;3.40;99.90
26907;DHT22;14472;56.880;16.658;2023-11-21T01:28:42;3.40;99.90
26907;DHT22;14472;56.880;16.658;2023-11-21T01:31:07;3.30;99.90
26907;DHT22;14472;56.880;16.658;2023-11-21T01:33:33;3.30;99.90
26907;DHT22;14472;56.880;16.658;2023-11-21T01:35:59;3.40;86.00
26907;DHT22;14472;56.880;16.658;2023-11-21T01:38:25;3.50;94.40
26907;DHT22;14472;56.880;16.658;2023-11-21T01:40:51;3.40;80.40
26907;DHT22;14472;56.880;16.658;2023-11-21T01:43:17;3.30;80.50
26907;DHT22;14472;56.880;16.658;2023-11-21T01:45:43;3.30;78.90
26907;DHT22;14472;56.880;16.658;2023-11-21T01:48:10;3.20;79.90
26907;DHT22;14472;56.880;16.658;2023-11-21T01:50:38;3.20;83.10
26907;DHT22;14472;56.880;16.658;2023-11-21T01:53:03;3.10;74.20
26907;DHT22;14472;56.880;16.658;2023-11-21T01:55:29;3.00;76.00
26907;DHT22;14472;56.880;16.658;2023-11-21T01:57:56;3.00;71.90
26907;DHT22;14472;56.880;16.658;2023-11-21T02:00:25;3.00;69.90
26907;DHT22;14472;56.880;16.658;2023-11-21T02:02:53;2.90;65.00
26907;DHT22;14472;56.880;16.658;2023-11-21T02:05:19;2.90;72.80
26907;DHT22;14472;56.880;16.658;2023-11-21T02:07:46;2.80;72.80
26907;DHT22;14472;56.880;16.658;2023-11-21T02:10:15;2.70;75.60
26907;DHT22;14472;56.880;16.658;2023-11-21T02:12:42;2.70;84.80
26907;DHT22;14472;56.880;16.658;2023-11-21T02:15:10;2.70;78.40
26907;DHT22;14472;56.880;16.658;2023-11-21T02:17:43;2.70;81.60
26907;DHT22;14472;56.880;16.658;2023-11-21T02:20:19;2.60;84.80
26907;DHT22;14472;56.880;16.658;2023-11-21T02:22:53;2.60;82.10
26907;DHT22;14472;56.880;16.658;2023-11-21T02:25:24;2.60;81.70
26907;DHT22;14472;56.880;16.658;2023-11-21T02:27:50;2.50;77.30
26907;DHT22;14472;56.880;16.658;2023-11-21T02:30:16;2.50;71.40
26907;DHT22;14472;56.880;16.658;2023-11-21T02:32:42;2.50;71.60
26907;DHT22;14472;56.880;16.658;2023-11-21T02:35:09;2.40;74.20
26907;DHT22;14472;56.880;16.658;2023-11-21T02:37:34;2.40;74.90
26907;DHT22;14472;56.880;16.658;2023-11-21T02:40:01;2.40;78.10
26907;DHT22;14472;56.880;16.658;2023-11-21T02:42:31;2.40;90.10
26907;DHT22;14472;56.880;16.658;2023-11-21T02:44:57;2.30;75.20
26907;DHT22;14472;56.880;16.658;2023-11-21T02:47:23;2.30;73.30
26907;DHT22;14472;56.880;16.658;2023-11-21T02:49:49;2.20;73.50
26907;DHT22;14472;56.880;16.658;2023-11-21T02:52:15;2.20;71.20
26907;DHT22;14472;56.880;16.658;2023-11-21T02:54:41;2.20;80.70
26907;DHT22;14472;56.880;16.658;2023-11-21T02:57:08;2.10;68.00
26907;DHT22;14472;56.880;16.658;2023-11-21T02:59:34;2.20;75.40
26907;DHT22;14472;56.880;16.658;2023-11-21T03:02:00;2.10;74.50
26907;DHT22;14472;56.880;16.658;2023-11-21T03:04:26;2.10;72.40
26907;DHT22;14472;56.880;16.658;2023-11-21T03:06:51;2.10;74.30
26907;DHT22;14472;56.880;16.658;2023-11-21T03:09:17;2.00;77.70
26907;DHT22;14472;56.880;16.658;2023-11-21T03:11:43;1.90;80.90
26907;DHT22;14472;56.880;16.658;2023-11-21T03:14:08;1.90;84.20
26907;DHT22;14472;56.880;16.658;2023-11-21T03:16:34;1.80;74.00
26907;DHT22;14472;56.880;16.658;2023-11-21T03:19:00;1.70;73.30
26907;DHT22;14472;56.880;16.658;2023-11-21T03:21:26;1.70;89.40
26907;DHT22;14472;56.880;16.658;2023-11-21T03:23:52;1.60;89.60
26907;DHT22;14472;56.880;16.658;2023-11-21T03:26:18;1.50;90.10
26907;DHT22;14472;56.880;16.658;2023-11-21T03:28:44;1.50;91.30
26907;DHT22;14472;56.880;16.658;2023-11-21T03:31:09;1.40;90.00
26907;DHT22;14472;56.880;16.658;2023-11-21T03:33:36;1.30;95.60
26907;DHT22;14472;56.880;16.658;2023-11-21T03:36:02;1.30;98.50
26907;DHT22;14472;56.880;16.658;2023-11-21T03:38:29;1.20;99.90
26907;DHT22;14472;56.880;16.658;2023-11-21T03:40:54;1.10;99.90
26907;DHT22;14472;56.880;16.658;2023-11-21T03:43:20;1.10;99.90
26907;DHT22;14472;56.880;16.658;2023-11-21T03:45:46;1.00;99.90
26907;DHT22;14472;56.880;16.658;2023-11-21T03:48:12;1.10;99.90
26907;DHT22;14472;56.880;16.658;2023-11-21T03:50:38;1.10;99.90
26907;DHT22;14472;56.880;16.658;2023-11-21T03:53:04;0.90;99.90
26907;DHT22;14472;56.880;16.658;2023-11-21T03:55:30;0.90;99.90
26907;DHT22;14472;56.880;16.658;2023-11-21T03:57:57;0.80;99.90
26907;DHT22;14472;56.880;16.658;2023-11-21T04:00:24;0.90;99.90
26907;DHT22;14472;56.880;16.658;2023-11-21T04:02:49;0.90;99.90
26907;DHT22;14472;56.880;16.658;2023-11-21T04:05:17;0.80;99.90
26907;DHT22;14472;56.880;16.658;2023-11-21T04:07:42;0.70;99.90
26907;DHT22;14472;56.880;16.658;2023-11-21T04:10:08;0.80;99.90
26907;DHT22;14472;56.880;16.658;2023-11-21T04:12:37;0.80;99.90
26907;DHT22;14472;56.880;16.658;2023-11-21T04:15:03;0.80;99.90
26907;DHT22;14472;56.880;16.658;2023-11-21T04:17:29;0.80;99.90
26907;DHT22;14472;56.880;16.658;2023-11-21T04:19:55;0.80;99.90
26907;DHT22;14472;56.880;16.658;2023-11-21T04:22:21;0.90;99.90
26907;DHT22;14472;56.880;16.658;2023-11-21T04:24:46;0.90;99.90
26907;DHT22;14472;56.880;16.658;2023-11-21T04:27:12;1.00;99.90
26907;DHT22;14472;56.880;16.658;2023-11-21T04:29:38;1.10;99.90
26907;DHT22;14472;56.880;16.658;2023-11-21T04:32:04;0.90;99.90
26907;DHT22;14472;56.880;16.658;2023-11-21T04:34:30;0.90;99.90
26907;DHT22;14472;56.880;16.658;2023-11-21T04:36:57;0.90;99.90
26907;DHT22;14472;56.880;16.658;2023-11-21T04:39:22;1.00;99.90
26907;DHT22;14472;56.880;16.658;2023-11-21T04:41:49;1.00;99.90
26907;DHT22;14472;56.880;16.658;2023-11-21T04:44:15;1.00;99.90
26907;DHT22;14472;56.880;16.658;2023-11-21T04:46:41;0.90;99.90
26907;DHT22;14472;56.880;16.658;2023-11-21T04:49:07;1.00;99.90
26907;DHT22;14472;56.880;16.658;2023-11-21T04:51:33;1.00;99.90
26907;DHT22;14472;56.880;16.658;2023-11-21T04:53:59;1.00;99.90
26907;DHT22;14472;56.880;16.658;2023-11-21T04:56:24;1.00;99.90
26907;DHT22;14472;56.880;16.658;2023-11-21T04:58:50;1.10;99.90
26907;DHT22;14472;56.880;16.658;2023-11-21T05:01:16;1.10;99.90
26907;DHT22;14472;56.880;16.658;2023-11-21T05:03:42;1.00;99.90
26907;DHT22;14472;56.880;16.658;2023-11-21T05:06:09;1.10;99.90
26907;DHT22;14472;56.880;16.658;2023-11-21T05:08:35;1.10;99.90
26907;DHT22;14472;56.880;16.658;2023-11-21T05:11:02;1.20;99.90
26907;DHT22;14472;56.880;16.658;2023-11-21T05:13:28;1.10;99.90
26907;DHT22;14472;56.880;16.658;2023-11-21T05:15:57;1.20;99.90
26907;DHT22;14472;56.880;16.658;2023-11-21T05:18:23;1.10;99.90
26907;DHT22;14472;56.880;16.658;2023-11-21T05:20:49;1.20;99.90
26907;DHT22;14472;56.880;16.658;2023-11-21T05:23:15;1.20;99.90
26907;DHT22;14472;56.880;16.658;2023-11-21T05:25:41;1.30;99.90
26907;DHT22;14472;56.880;16.658;2023-11-21T05:28:07;1.30;99.90
26907;DHT22;14472;56.880;16.658;2023-11-21T05:30:33;1.30;99.90
26907;DHT22;14472;56.880;16.658;2023-11-21T05:32:59;1.40;99.90
26907;DHT22;14472;56.880;16.658;2023-11-21T05:35:24;1.50;99.90
26907;DHT22;14472;56.880;16.658;2023-11-21T05:37:50;1.70;99.90
26907;DHT22;14472;56.880;16.658;2023-11-21T05:40:16;1.70;99.90
26907;DHT22;14472;56.880;16.658;2023-11-21T05:42:41;1.70;99.90
26907;DHT22;14472;56.880;16.658;2023-11-21T05:45:08;1.70;99.90
26907;DHT22;14472;56.880;16.658;2023-11-21T05:47:41;1.80;99.90
26907;DHT22;14472;56.880;16.658;2023-11-21T05:50:08;1.90;99.90
26907;DHT22;14472;56.880;16.658;2023-11-21T05:52:42;1.80;99.90
26907;DHT22;14472;56.880;16.658;2023-11-21T05:55:09;1.80;99.90
26907;DHT22;14472;56.880;16.658;2023-11-21T05:57:35;1.80;99.90
26907;DHT22;14472;56.880;16.658;2023-11-21T06:00:14;1.80;99.90
26907;DHT22;14472;56.880;16.658;2023-11-21T06:02:51;1.80;99.90
26907;DHT22;14472;56.880;16.658;2023-11-21T06:05:19;2.00;99.90
26907;DHT22;14472;56.880;16.658;2023-11-21T06:07:45;1.90;99.90
26907;DHT22;14472;56.880;16.658;2023-11-21T06:10:11;1.90;99.90
26907;DHT22;14472;56.880;16.658;2023-11-21T06:12:40;1.90;99.90
26907;DHT22;14472;56.880;16.658;2023-11-21T06:15:09;1.80;99.90
26907;DHT22;14472;56.880;16.658;2023-11-21T06:17:37;1.80;99.90
26907;DHT22;14472;56.880;16.658;2023-11-21T06:20:08;2.10;99.90
26907;DHT22;14472;56.880;16.658;2023-11-21T06:22:45;1.90;99.90
26907;DHT22;14472;56.880;16.658;2023-11-21T06:25:12;1.80;99.90
26907;DHT22;14472;56.880;16.658;2023-11-21T06:27:48;1.80;99.90
26907;DHT22;14472;56.880;16.658;2023-11-21T06:30:14;1.80;99.90
26907;DHT22;14472;56.880;16.658;2023-11-21T06:32:41;2.00;99.90
26907;DHT22;14472;56.880;16.658;2023-11-21T06:35:07;1.90;99.90
26907;DHT22;14472;56.880;16.658;2023-11-21T06:37:35;1.90;99.90
26907;DHT22;14472;56.880;16.658;2023-11-21T06:40:01;1.90;99.90
26907;DHT22;14472;56.880;16.658;2023-11-21T06:42:29;1.80;99.90
26907;DHT22;14472;56.880;16.658;2023-11-21T06:44:55;2.00;99.90
26907;DHT22;14472;56.880;16.658;2023-11-21T06:47:23;2.00;99.90
26907;DHT22;14472;56.880;16.658;2023-11-21T06:49:56;2.00;99.90
26907;DHT22;14472;56.880;16.658;2023-11-21T06:52:21;2.00;99.90
26907;DHT22;14472;56.880;16.658;2023-11-21T06:54:48;1.90;99.90
26907;DHT22;14472;56.880;16.658;2023-11-21T06:57:17;2.10;99.90
26907;DHT22;14472;56.880;16.658;2023-11-21T06:59:43;2.10;99.90
26907;DHT22;14472;56.880;16.658;2023-11-21T07:02:09;2.10;99.90
26907;DHT22;14472;56.880;16.658;2023-11-21T07:04:35;2.00;99.90
26907;DHT22;14472;56.880;16.658;2023-11-21T07:07:02;1.90;99.90
26907;DHT22;14472;56.880;16.658;2023-11-21T07:09:28;2.00;99.90
26907;DHT22;14472;56.880;16.658;2023-11-21T07:11:54;2.20;99.90
26907;DHT22;14472;56.880;16.658;2023-11-21T07:14:20;2.10;99.90
26907;DHT22;14472;56.880;16.658;2023-11-21T07:16:47;2.10;99.90
26907;DHT22;14472;56.880;16.658;2023-11-21T07:19:13;2.00;99.90
26907;DHT22;14472;56.880;16.658;2023-11-21T07:21:39;2.00;99.90
26907;DHT22;14472;56.880;16.658;2023-11-21T07:24:06;2.20;99.90
26907;DHT22;14472;56.880;16.658;2023-11-21T07:26:32;2.20;99.90
26907;DHT22;14472;56.880;16.658;2023-11-21T07:28:59;2.20;99.90
26907;DHT22;14472;56.880;16.658;2023-11-21T07:31:25;2.10;99.90
26907;DHT22;14472;56.880;16.658;2023-11-21T07:33:51;2.10;99.90
26907;DHT22;14472;56.880;16.658;2023-11-21T07:36:17;2.20;99.90
26907;DHT22;14472;56.880;16.658;2023-11-21T07:38:46;2.40;99.90
26907;DHT22;14472;56.880;16.658;2023-11-21T07:41:13;2.30;99.90
26907;DHT22;14472;56.880;16.658;2023-11-21T07:43:43;2.20;99.90
26907;DHT22;14472;56.880;16.658;2023-11-21T07:46:10;2.20;99.90
26907;DHT22;14472;56.880;16.658;2023-11-21T07:48:38;2.20;99.90
26907;DHT22;14472;56.880;16.658;2023-11-21T07:51:04;2.40;99.90
26907;DHT22;14472;56.880;16.658;2023-11-21T07:53:30;2.40;99.90
26907;DHT22;14472;56.880;16.658;2023-11-21T07:55:56;2.40;99.90
26907;DHT22;14472;56.880;16.658;2023-11-21T07:58:22;2.30;99.90
26907;DHT22;14472;56.880;16.658;2023-11-21T08:00:49;2.40;99.90
26907;DHT22;14472;56.880;16.658;2023-11-21T08:03:15;2.60;99.90
26907;DHT22;14472;56.880;16.658;2023-11-21T08:05:41;2.60;99.90
26907;DHT22;14472;56.880;16.658;2023-11-21T08:08:07;2.60;99.90
26907;DHT22;14472;56.880;16.658;2023-11-21T08:10:33;2.50;99.90
26907;DHT22;14472;56.880;16.658;2023-11-21T08:12:59;2.60;99.90
26907;DHT22;14472;56.880;16.658;2023-11-21T08:15:25;2.80;99.90
26907;DHT22;14472;56.880;16.658;2023-11-21T08:17:51;2.80;99.90
26907;DHT22;14472;56.880;16.658;2023-11-21T08:20:16;2.70;99.90
26907;DHT22;14472;56.880;16.658;2023-11-21T08:22:44;2.70;99.90
26907;DHT22;14472;56.880;16.658;2023-11-21T08:25:09;2.70;99.90
26907;DHT22;14472;56.880;16.658;2023-11-21T08:27:35;2.70;99.90
26907;DHT22;14472;56.880;16.658;2023-11-21T08:30:03;2.80;99.90
26907;DHT22;14472;56.880;16.658;2023-11-21T08:32:29;2.80;99.90
26907;DHT22;14472;56.880;16.658;2023-11-21T08:34:59;2.90;99.90
26907;DHT22;14472;56.880;16.658;2023-11-21T08:37:25;3.00;99.90
26907;DHT22;14472;56.880;16.658;2023-11-21T08:39:53;3.10;99.90
26907;DHT22;14472;56.880;16.658;2023-11-21T08:42:19;3.10;99.90
26907;DHT22;14472;56.880;16.658;2023-11-21T08:44:45;3.20;99.90
26907;DHT22;14472;56.880;16.658;2023-11-21T08:47:11;3.30;99.90
26907;DHT22;14472;56.880;16.658;2023-11-21T08:49:37;3.40;99.90
26907;DHT22;14472;56.880;16.658;2023-11-21T08:52:03;3.50;99.90
26907;DHT22;14472;56.880;16.658;2023-11-21T08:54:31;3.50;99.90
26907;DHT22;14472;56.880;16.658;2023-11-21T08:56:57;3.60;99.90
26907;DHT22;14472;56.880;16.658;2023-11-21T08:59:26;3.60;93.80
26907;DHT22;14472;56.880;16.658;2023-11-21T09:01:52;3.70;87.50
26907;DHT22;14472;56.880;16.658;2023-11-21T09:04:18;3.60;82.90
26907;DHT22;14472;56.880;16.658;2023-11-21T09:06:44;3.60;79.20
26907;DHT22;14472;56.880;16.658;2023-11-21T09:09:10;3.60;67.90
26907;DHT22;14472;56.880;16.658;2023-11-21T09:11:36;3.60;61.40
26907;DHT22;14472;56.880;16.658;2023-11-21T09:14:03;3.60;56.30
26907;DHT22;14472;56.880;16.658;2023-11-21T09:16:31;3.60;51.00
26907;DHT22;14472;56.880;16.658;2023-11-21T09:19:00;3.70;43.10
26907;DHT22;14472;56.880;16.658;2023-11-21T09:21:26;3.70;38.80
26907;DHT22;14472;56.880;16.658;2023-11-21T09:23:53;3.90;99.90
26907;DHT22;14472;56.880;16.658;2023-11-21T09:26:19;4.10;99.90
26907;DHT22;14472;56.880;16.658;2023-11-21T09:28:45;4.20;99.90
26907;DHT22;14472;56.880;16.658;2023-11-21T09:31:13;4.30;99.90
26907;DHT22;14472;56.880;16.658;2023-11-21T09:33:44;4.30;99.90
26907;DHT22;14472;56.880;16.658;2023-11-21T09:36:13;4.30;99.90
26907;DHT22;14472;56.880;16.658;2023-11-21T09:38:41;4.20;99.90
26907;DHT22;14472;56.880;16.658;2023-11-21T09:41:15;4.30;99.90
26907;DHT22;14472;56.880;16.658;2023-11-21T09:43:46;4.30;99.90
26907;DHT22;14472;56.880;16.658;2023-11-21T09:46:13;4.20;99.90
26907;DHT22;14472;56.880;16.658;2023-11-21T09:48:47;4.10;99.90
26907;DHT22;14472;56.880;16.658;2023-11-21T09:51:16;4.00;96.90
26907;DHT22;14472;56.880;16.658;2023-11-21T09:53:48;4.10;94.20
26907;DHT22;14472;56.880;16.658;2023-11-21T09:56:15;4.00;96.10
26907;DHT22;14472;56.880;16.658;2023-11-21T09:58:45;4.00;96.80
26907;DHT22;14472;56.880;16.658;2023-11-21T10:01:11;4.00;86.20
26907;DHT22;14472;56.880;16.658;2023-11-21T10:03:39;4.10;75.20
26907;DHT22;14472;56.880;16.658;2023-11-21T10:06:05;4.00;64.40
26907;DHT22;14472;56.880;16.658;2023-11-21T10:08:32;4.00;72.20
26907;DHT22;14472;56.880;16.658;2023-11-21T10:11:02;4.00;69.80
26907;DHT22;14472;56.880;16.658;2023-11-21T10:13:32;4.00;66.10
26907;DHT22;14472;56.880;16.658;2023-11-21T10:15:59;3.90;66.00
26907;DHT22;14472;56.880;16.658;2023-11-21T10:18:26;3.90;57.80
26907;DHT22;14472;56.880;16.658;2023-11-21T10:20:53;4.00;54.70
26907;DHT22;14472;56.880;16.658;2023-11-21T10:23:21;4.00;55.10
26907;DHT22;14472;56.880;16.658;2023-11-21T10:25:47;3.90;53.90
26907;DHT22;14472;56.880;16.658;2023-11-21T10:28:15;4.10;53.40
26907;DHT22;14472;56.880;16.658;2023-11-21T10:30:41;4.00;53.30
26907;DHT22;14472;56.880;16.658;2023-11-21T10:33:07;4.00;69.20
26907;DHT22;14472;56.880;16.658;2023-11-21T10:35:48;4.00;99.90
26907;DHT22;14472;56.880;16.658;2023-11-21T10:38:19;4.00;99.90
26907;DHT22;14472;56.880;16.658;2023-11-21T10:40:48;4.00;99.90
26907;DHT22;14472;56.880;16.658;2023-11-21T10:43:15;4.00;99.90
26907;DHT22;14472;56.880;16.658;2023-11-21T10:45:42;4.00;99.90
26907;DHT22;14472;56.880;16.658;2023-11-21T10:48:09;4.10;99.90
26907;DHT22;14472;56.880;16.658;2023-11-21T10:50:41;4.10;99.90
26907;DHT22;14472;56.880;16.658;2023-11-21T10:53:07;4.10;99.90
26907;DHT22;14472;56.880;16.658;2023-11-21T10:55:34;4.00;99.90
26907;DHT22;14472;56.880;16.658;2023-11-21T10:58:02;4.00;99.90
26907;DHT22;14472;56.880;16.658;2023-11-21T11:00:31;4.00;99.90
26907;DHT22;14472;56.880;16.658;2023-11-21T11:02:57;4.00;99.90
26907;DHT22;14472;56.880;16.658;2023-11-21T11:05:29;4.00;99.90
26907;DHT22;14472;56.880;16.658;2023-11-21T11:08:07;4.00;99.90
26907;DHT22;14472;56.880;16.658;2023-11-21T11:10:33;4.10;99.90
26907;DHT22;14472;56.880;16.658;2023-11-21T11:12:59;4.10;99.90
26907;DHT22;14472;56.880;16.658;2023-11-21T11:15:26;4.10;99.90
26907;DHT22;14472;56.880;16.658;2023-11-21T11:17:53;4.00;99.90
26907;DHT22;14472;56.880;16.658;2023-11-21T11:20:24;4.00;99.90
26907;DHT22;14472;56.880;16.658;2023-11-21T11:26:12;4.00;99.90
26907;DHT22;14472;56.880;16.658;2023-11-21T11:31:38;3.90;99.90
26907;DHT22;14472;56.880;16.658;2023-11-21T11:34:23;3.80;99.90
26907;DHT22;14472;56.880;16.658;2023-11-21T11:37:02;3.70;99.90
26907;DHT22;14472;56.880;16.658;2023-11-21T11:39:37;3.60;99.90
26907;DHT22;14472;56.880;16.658;2023-11-21T11:42:14;3.60;99.90
26907;DHT22;14472;56.880;16.658;2023-11-21T11:47:29;3.40;99.90
26907;DHT22;14472;56.880;16.658;2023-11-21T11:50:03;3.30;99.90
26907;DHT22;14472;56.880;16.658;2023-11-21T11:52:37;3.20;99.90
26907;DHT22;14472;56.880;16.658;2023-11-21T11:55:07;3.20;99.90
26907;DHT22;14472;56.880;16.658;2023-11-21T11:57:35;3.10;99.90
26907;DHT22;14472;56.880;16.658;2023-11-21T12:02:38;2.90;99.90
26907;DHT22;14472;56.880;16.658;2023-11-21T12:05:12;2.80;99.90
26907;DHT22;14472;56.880;16.658;2023-11-21T12:07:46;2.80;99.90
26907;DHT22;14472;56.880;16.658;2023-11-21T12:10:17;2.80;99.90
26907;DHT22;14472;56.880;16.658;2023-11-21T12:13:17;2.70;99.90
26907;DHT22;14472;56.880;16.658;2023-11-21T12:15:38;2.70;99.90
26907;DHT22;14472;56.880;16.658;2023-11-21T12:18:04;2.70;99.90
26907;DHT22;14472;56.880;16.658;2023-11-21T12:20:31;2.60;99.90
26907;DHT22;14472;56.880;16.658;2023-11-21T12:22:58;2.50;99.90
26907;DHT22;14472;56.880;16.658;2023-11-21T12:25:28;2.30;99.90
26907;DHT22;14472;56.880;16.658;2023-11-21T12:27:56;2.30;99.90
26907;DHT22;14472;56.880;16.658;2023-11-21T12:30:27;2.20;99.90
26907;DHT22;14472;56.880;16.658;2023-11-21T12:33:01;2.20;99.90
26907;DHT22;14472;56.880;16.658;2023-11-21T12:35:29;2.10;99.90
26907;DHT22;14472;56.880;16.658;2023-11-21T12:37:55;2.10;99.90
26907;DHT22;14472;56.880;16.658;2023-11-21T12:40:24;2.00;99.90
26907;DHT22;14472;56.880;16.658;2023-11-21T12:42:58;2.00;99.90
26907;DHT22;14472;56.880;16.658;2023-11-21T12:45:26;2.00;99.90
26907;DHT22;14472;56.880;16.658;2023-11-21T12:47:56;2.00;99.90
26907;DHT22;14472;56.880;16.658;2023-11-21T12:50:28;2.10;99.90
26907;DHT22;14472;56.880;16.658;2023-11-21T12:52:59;2.00;99.90
26907;DHT22;14472;56.880;16.658;2023-11-21T12:55:25;2.00;99.90
26907;DHT22;14472;56.880;16.658;2023-11-21T12:57:55;2.00;99.90
26907;DHT22;14472;56.880;16.658;2023-11-21T13:00:35;2.00;99.90
26907;DHT22;14472;56.880;16.658;2023-11-21T13:03:07;2.00;99.90
26907;DHT22;14472;56.880;16.658;2023-11-21T13:05:35;2.00;99.90
26907;DHT22;14472;56.880;16.658;2023-11-21T13:08:06;2.00;99.90
26907;DHT22;14472;56.880;16.658;2023-11-21T13:10:40;2.00;99.90
26907;DHT22;14472;56.880;16.658;2023-11-21T13:13:09;2.00;99.90
26907;DHT22;14472;56.880;16.658;2023-11-21T13:15:39;1.90;99.90
26907;DHT22;14472;56.880;16.658;2023-11-21T13:18:06;1.80;99.90
26907;DHT22;14472;56.880;16.658;2023-11-21T13:20:32;1.80;99.90
26907;DHT22;14472;56.880;16.658;2023-11-21T13:22:59;1.80;99.90
26907;DHT22;14472;56.880;16.658;2023-11-21T13:25:27;1.80;99.90
26907;DHT22;14472;56.880;16.658;2023-11-21T13:27:57;1.70;99.90
26907;DHT22;14472;56.880;16.658;2023-11-21T13:30:24;1.70;99.90
26907;DHT22;14472;56.880;16.658;2023-11-21T13:33:02;1.60;99.90
26907;DHT22;14472;56.880;16.658;2023-11-21T13:35:32;1.60;99.90
26907;DHT22;14472;56.880;16.658;2023-11-21T13:38:14;1.60;99.90
26907;DHT22;14472;56.880;16.658;2023-11-21T13:40:54;1.60;99.90
26907;DHT22;14472;56.880;16.658;2023-11-21T13:43:22;1.50;99.90
26907;DHT22;14472;56.880;16.658;2023-11-21T13:45:50;1.50;99.90
26907;DHT22;14472;56.880;16.658;2023-11-21T13:48:23;1.50;99.90
26907;DHT22;14472;56.880;16.658;2023-11-21T13:51:01;1.50;99.90
26907;DHT22;14472;56.880;16.658;2023-11-21T13:53:36;1.50;99.90
26907;DHT22;14472;56.880;16.658;2023-11-21T13:56:04;1.40;99.90
26907;DHT22;14472;56.880;16.658;2023-11-21T13:58:30;1.50;99.90
26907;DHT22;14472;56.880;16.658;2023-11-21T14:01:26;1.50;99.90
26907;DHT22;14472;56.880;16.658;2023-11-21T14:03:58;1.50;99.90
26907;DHT22;14472;56.880;16.658;2023-11-21T14:06:46;1.40;99.90
26907;DHT22;14472;56.880;16.658;2023-11-21T14:09:20;1.50;99.90
26907;DHT22;14472;56.880;16.658;2023-11-21T14:11:57;1.50;99.90
26907;DHT22;14472;56.880;16.658;2023-11-21T14:14:27;1.40;99.90
26907;DHT22;14472;56.880;16.658;2023-11-21T14:16:56;1.50;99.90
26907;DHT22;14472;56.880;16.658;2023-11-21T14:19:22;1.50;99.90
26907;DHT22;14472;56.880;16.658;2023-11-21T14:21:52;1.50;99.90
26907;DHT22;14472;56.880;16.658;2023-11-21T14:24:18;1.50;99.90
26907;DHT22;14472;56.880;16.658;2023-11-21T14:26:46;1.60;99.90
26907;DHT22;14472;56.880;16.658;2023-11-21T14:29:12;1.60;99.90
26907;DHT22;14472;56.880;16.658;2023-11-21T14:31:40;1.70;99.90
26907;DHT22;14472;56.880;16.658;2023-11-21T14:34:07;1.70;99.90
26907;DHT22;14472;56.880;16.658;2023-11-21T14:36:36;1.70;99.90
26907;DHT22;14472;56.880;16.658;2023-11-21T14:39:06;1.80;99.90
26907;DHT22;14472;56.880;16.658;2023-11-21T14:41:47;1.80;99.90
26907;DHT22;14472;56.880;16.658;2023-11-21T14:44:13;1.80;99.90
26907;DHT22;14472;56.880;16.658;2023-11-21T14:46:41;1.70;99.90
26907;DHT22;14472;56.880;16.658;2023-11-21T14:49:12;1.70;99.90
26907;DHT22;14472;56.880;16.658;2023-11-21T14:51:53;1.70;99.90
26907;DHT22;14472;56.880;16.658;2023-11-21T14:54:30;1.70;99.90
26907;DHT22;14472;56.880;16.658;2023-11-21T14:57:14;2.00;99.90
26907;DHT22;14472;56.880;16.658;2023-11-21T14:59:50;2.30;99.90
26907;DHT22;14472;56.880;16.658;2023-11-21T15:02:17;2.50;99.90
26907;DHT22;14472;56.880;16.658;2023-11-21T15:04:48;2.60;99.90
26907;DHT22;14472;56.880;16.658;2023-11-21T15:07:17;2.30;99.90
26907;DHT22;14472;56.880;16.658;2023-11-21T15:09:43;2.10;99.90
26907;DHT22;14472;56.880;16.658;2023-11-21T15:12:11;1.90;99.90
26907;DHT22;14472;56.880;16.658;2023-11-21T15:14:49;1.70;99.90
26907;DHT22;14472;56.880;16.658;2023-11-21T15:17:18;1.70;99.90
26907;DHT22;14472;56.880;16.658;2023-11-21T15:19:52;1.70;99.90
26907;DHT22;14472;56.880;16.658;2023-11-21T15:22:19;1.70;99.90
26907;DHT22;14472;56.880;16.658;2023-11-21T15:24:45;1.60;99.90
26907;DHT22;14472;56.880;16.658;2023-11-21T15:27:13;1.60;99.90
26907;DHT22;14472;56.880;16.658;2023-11-21T15:29:40;1.60;99.90
26907;DHT22;14472;56.880;16.658;2023-11-21T15:32:07;1.50;99.90
26907;DHT22;14472;56.880;16.658;2023-11-21T15:34:34;1.60;99.90
26907;DHT22;14472;56.880;16.658;2023-11-21T15:37:00;1.60;99.90
26907;DHT22;14472;56.880;16.658;2023-11-21T15:39:26;1.50;99.90
26907;DHT22;14472;56.880;16.658;2023-11-21T15:41:56;1.60;99.90
26907;DHT22;14472;56.880;16.658;2023-11-21T15:44:23;1.60;99.90
26907;DHT22;14472;56.880;16.658;2023-11-21T15:46:50;1.60;99.90